sensor_id;sensor_type;location;lat;lon;timestamp;temperature;humidity
74537;SHT31;63013;51.104;-115.370;2023-02-18T00:01:33;21.25;31.40
74537;SHT31;63013;51.104;-115.370;2023-02-18T00:04:00;21.27;31.42
74537;SHT31;63013;51.104;-115.370;2023-02-18T00:06:29;21.30;31.42
74537;SHT31;63013;51.104;-115.370;2023-02-18T00:08:59;21.33;31.46
74537;SHT31;63013;51.104;-115.370;2023-02-18T00:11:33;21.35;31.48
74537;SHT31;63013;51.104;-115.370;2023-02-18T00:14:03;21.38;31.49
74537;SHT31;63013;51.104;-115.370;2023-02-18T00:16:36;21.42;31.50
74537;SHT31;63013;51.104;-115.370;2023-02-18T00:19:04;21.45;31.50
74537;SHT31;63013;51.104;-115.370;2023-02-18T00:21:34;21.49;31.50
74537;SHT31;63013;51.104;-115.370;2023-02-18T00:24:02;21.49;31.50
74537;SHT31;63013;51.104;-115.370;2023-02-18T00:26:31;21.49;31.50
74537;SHT31;63013;51.104;-115.370;2023-02-18T00:28:59;21.49;31.50
74537;SHT31;63013;51.104;-115.370;2023-02-18T00:31:28;21.47;31.54
74537;SHT31;63013;51.104;-115.370;2023-02-18T00:33:58;21.47;31.59
74537;SHT31;63013;51.104;-115.370;2023-02-18T00:36:26;21.47;31.51
74537;SHT31;63013;51.104;-115.370;2023-02-18T00:38:55;21.48;31.50
74537;SHT31;63013;51.104;-115.370;2023-02-18T00:41:26;21.50;31.49
74537;SHT31;63013;51.104;-115.370;2023-02-18T00:43:54;21.52;31.50
74537;SHT31;63013;51.104;-115.370;2023-02-18T00:46:24;21.55;31.50
74537;SHT31;63013;51.104;-115.370;2023-02-18T00:48:53;21.59;31.50
74537;SHT31;63013;51.104;-115.370;2023-02-18T00:51:21;21.62;31.52
74537;SHT31;63013;51.104;-115.370;2023-02-18T00:53:49;21.67;31.50
74537;SHT31;63013;51.104;-115.370;2023-02-18T00:56:17;21.71;31.52
74537;SHT31;63013;51.104;-115.370;2023-02-18T00:58:45;21.73;31.50
74537;SHT31;63013;51.104;-115.370;2023-02-18T01:01:12;21.74;31.55
74537;SHT31;63013;51.104;-115.370;2023-02-18T01:03:41;21.73;31.59
74537;SHT31;63013;51.104;-115.370;2023-02-18T01:06:10;21.73;31.61
74537;SHT31;63013;51.104;-115.370;2023-02-18T01:08:38;21.72;31.61
74537;SHT31;63013;51.104;-115.370;2023-02-18T01:11:08;21.72;31.62
74537;SHT31;63013;51.104;-115.370;2023-02-18T01:13:39;21.70;31.66
74537;SHT31;63013;51.104;-115.370;2023-02-18T01:16:07;21.68;31.69
74537;SHT31;63013;51.104;-115.370;2023-02-18T01:18:34;21.68;31.74
74537;SHT31;63013;51.104;-115.370;2023-02-18T01:21:02;21.65;31.74
74537;SHT31;63013;51.104;-115.370;2023-02-18T01:23:33;21.64;31.80
74537;SHT31;63013;51.104;-115.370;2023-02-18T01:26:03;21.63;31.80
74537;SHT31;63013;51.104;-115.370;2023-02-18T01:28:30;21.61;31.85
74537;SHT31;63013;51.104;-115.370;2023-02-18T01:31:02;21.59;31.88
74537;SHT31;63013;51.104;-115.370;2023-02-18T01:33:33;21.58;31.89
74537;SHT31;63013;51.104;-115.370;2023-02-18T01:36:00;21.56;31.90
74537;SHT31;63013;51.104;-115.370;2023-02-18T01:38:28;21.55;31.90
74537;SHT31;63013;51.104;-115.370;2023-02-18T01:40:56;21.53;31.90
74537;SHT31;63013;51.104;-115.370;2023-02-18T01:43:23;21.51;31.93
74537;SHT31;63013;51.104;-115.370;2023-02-18T01:48:28;21.48;31.99
74537;SHT31;63013;51.104;-115.370;2023-02-18T01:51:22;21.45;32.00
74537;SHT31;63013;51.104;-115.370;2023-02-18T01:54:02;21.43;32.00
74537;SHT31;63013;51.104;-115.370;2023-02-18T01:56:46;21.41;32.04
74537;SHT31;63013;51.104;-115.370;2023-02-18T01:59:22;21.39;32.08
74537;SHT31;63013;51.104;-115.370;2023-02-18T02:02:02;21.38;32.10
74537;SHT31;63013;51.104;-115.370;2023-02-18T02:04:31;21.36;32.11
74537;SHT31;63013;51.104;-115.370;2023-02-18T02:06:58;21.34;32.10
74537;SHT31;63013;51.104;-115.370;2023-02-18T02:09:25;21.33;32.10
74537;SHT31;63013;51.104;-115.370;2023-02-18T02:18:16;21.29;32.10
74537;SHT31;63013;51.104;-115.370;2023-02-18T02:39:47;21.11;32.49
74537;SHT31;63013;51.104;-115.370;2023-02-18T02:42:34;21.10;32.59
74537;SHT31;63013;51.104;-115.370;2023-02-18T02:48:26;21.06;33.02
74537;SHT31;63013;51.104;-115.370;2023-02-18T02:53:49;21.06;33.15
74537;SHT31;63013;51.104;-115.370;2023-02-18T02:56:20;21.04;33.13
74537;SHT31;63013;51.104;-115.370;2023-02-18T02:59:00;21.02;33.17
74537;SHT31;63013;51.104;-115.370;2023-02-18T03:01:40;21.00;33.21
74537;SHT31;63013;51.104;-115.370;2023-02-18T03:10:27;20.94;33.36
74537;SHT31;63013;51.104;-115.370;2023-02-18T03:19:23;20.91;33.29
74537;SHT31;63013;51.104;-115.370;2023-02-18T03:22:23;20.88;33.28
74537;SHT31;63013;51.104;-115.370;2023-02-18T03:24:57;20.87;33.22
74537;SHT31;63013;51.104;-115.370;2023-02-18T03:27:29;20.86;33.20
74537;SHT31;63013;51.104;-115.370;2023-02-18T03:30:20;20.83;33.19
74537;SHT31;63013;51.104;-115.370;2023-02-18T03:33:04;20.82;33.18
74537;SHT31;63013;51.104;-115.370;2023-02-18T03:35:36;20.80;33.16
74537;SHT31;63013;51.104;-115.370;2023-02-18T03:40:46;20.78;33.09
74537;SHT31;63013;51.104;-115.370;2023-02-18T03:43:13;20.76;33.10
74537;SHT31;63013;51.104;-115.370;2023-02-18T03:45:40;20.76;33.09
74537;SHT31;63013;51.104;-115.370;2023-02-18T03:48:07;20.74;33.07
74537;SHT31;63013;51.104;-115.370;2023-02-18T03:50:35;20.73;33.04
74537;SHT31;63013;51.104;-115.370;2023-02-18T03:53:02;20.72;33.03
74537;SHT31;63013;51.104;-115.370;2023-02-18T03:55:29;20.71;33.05
74537;SHT31;63013;51.104;-115.370;2023-02-18T03:57:56;20.68;33.03
74537;SHT31;63013;51.104;-115.370;2023-02-18T04:00:22;20.67;33.01
74537;SHT31;63013;51.104;-115.370;2023-02-18T04:02:50;20.65;32.99
74537;SHT31;63013;51.104;-115.370;2023-02-18T04:05:17;20.64;32.99
74537;SHT31;63013;51.104;-115.370;2023-02-18T04:07:44;20.62;32.98
74537;SHT31;63013;51.104;-115.370;2023-02-18T04:10:11;20.60;32.93
74537;SHT31;63013;51.104;-115.370;2023-02-18T04:12:39;20.57;32.90
74537;SHT31;63013;51.104;-115.370;2023-02-18T04:15:06;20.55;32.91
74537;SHT31;63013;51.104;-115.370;2023-02-18T04:17:33;20.52;32.90
74537;SHT31;63013;51.104;-115.370;2023-02-18T04:20:01;20.50;32.90
74537;SHT31;63013;51.104;-115.370;2023-02-18T04:22:29;20.48;32.90
74537;SHT31;63013;51.104;-115.370;2023-02-18T04:24:56;20.47;32.85
74537;SHT31;63013;51.104;-115.370;2023-02-18T04:27:25;20.44;32.87
74537;SHT31;63013;51.104;-115.370;2023-02-18T04:29:52;20.43;32.88
74537;SHT31;63013;51.104;-115.370;2023-02-18T04:32:19;20.40;32.89
74537;SHT31;63013;51.104;-115.370;2023-02-18T04:34:46;20.39;32.85
74537;SHT31;63013;51.104;-115.370;2023-02-18T04:37:13;20.36;32.83
74537;SHT31;63013;51.104;-115.370;2023-02-18T04:39:40;20.34;32.84
74537;SHT31;63013;51.104;-115.370;2023-02-18T04:42:07;20.32;32.81
74537;SHT31;63013;51.104;-115.370;2023-02-18T04:44:35;20.29;32.81
74537;SHT31;63013;51.104;-115.370;2023-02-18T04:47:04;20.28;32.80
74537;SHT31;63013;51.104;-115.370;2023-02-18T04:49:31;20.26;32.79
74537;SHT31;63013;51.104;-115.370;2023-02-18T04:51:59;20.24;32.77
74537;SHT31;63013;51.104;-115.370;2023-02-18T04:54:26;20.22;32.76
74537;SHT31;63013;51.104;-115.370;2023-02-18T04:56:53;20.20;32.77
74537;SHT31;63013;51.104;-115.370;2023-02-18T04:59:20;20.19;32.78
74537;SHT31;63013;51.104;-115.370;2023-02-18T05:01:48;20.17;32.76
74537;SHT31;63013;51.104;-115.370;2023-02-18T05:04:15;20.15;32.77
74537;SHT31;63013;51.104;-115.370;2023-02-18T05:06:43;20.13;32.75
74537;SHT31;63013;51.104;-115.370;2023-02-18T05:09:10;20.12;32.72
74537;SHT31;63013;51.104;-115.370;2023-02-18T05:11:38;20.10;32.72
74537;SHT31;63013;51.104;-115.370;2023-02-18T05:14:06;20.08;32.70
74537;SHT31;63013;51.104;-115.370;2023-02-18T05:16:33;20.06;32.70
74537;SHT31;63013;51.104;-115.370;2023-02-18T05:19:00;20.04;32.70
74537;SHT31;63013;51.104;-115.370;2023-02-18T05:21:28;20.04;32.71
74537;SHT31;63013;51.104;-115.370;2023-02-18T05:23:55;20.01;32.68
74537;SHT31;63013;51.104;-115.370;2023-02-18T05:26:22;20.00;32.70
74537;SHT31;63013;51.104;-115.370;2023-02-18T05:28:50;19.99;32.68
74537;SHT31;63013;51.104;-115.370;2023-02-18T05:31:17;19.96;32.70
74537;SHT31;63013;51.104;-115.370;2023-02-18T05:33:44;19.95;32.67
74537;SHT31;63013;51.104;-115.370;2023-02-18T05:36:11;19.94;32.69
74537;SHT31;63013;51.104;-115.370;2023-02-18T05:38:38;19.92;32.68
74537;SHT31;63013;51.104;-115.370;2023-02-18T05:41:05;19.90;32.69
74537;SHT31;63013;51.104;-115.370;2023-02-18T05:43:32;19.89;32.68
74537;SHT31;63013;51.104;-115.370;2023-02-18T05:46:19;19.87;32.69
74537;SHT31;63013;51.104;-115.370;2023-02-18T05:48:47;19.85;32.68
74537;SHT31;63013;51.104;-115.370;2023-02-18T05:51:14;19.83;32.65
74537;SHT31;63013;51.104;-115.370;2023-02-18T05:53:41;19.82;32.62
74537;SHT31;63013;51.104;-115.370;2023-02-18T05:56:09;19.80;32.63
74537;SHT31;63013;51.104;-115.370;2023-02-18T05:58:36;19.78;32.62
74537;SHT31;63013;51.104;-115.370;2023-02-18T06:01:03;19.75;32.60
74537;SHT31;63013;51.104;-115.370;2023-02-18T06:03:30;19.75;32.61
74537;SHT31;63013;51.104;-115.370;2023-02-18T06:05:57;19.73;32.60
74537;SHT31;63013;51.104;-115.370;2023-02-18T06:08:24;19.71;32.62
74537;SHT31;63013;51.104;-115.370;2023-02-18T06:10:52;19.68;32.61
74537;SHT31;63013;51.104;-115.370;2023-02-18T06:13:19;19.67;32.63
74537;SHT31;63013;51.104;-115.370;2023-02-18T06:15:48;19.65;32.62
74537;SHT31;63013;51.104;-115.370;2023-02-18T06:18:17;19.62;32.61
74537;SHT31;63013;51.104;-115.370;2023-02-18T06:20:45;19.60;32.60
74537;SHT31;63013;51.104;-115.370;2023-02-18T06:23:13;19.58;32.60
74537;SHT31;63013;51.104;-115.370;2023-02-18T06:25:41;19.57;32.60
74537;SHT31;63013;51.104;-115.370;2023-02-18T06:28:08;19.55;32.60
74537;SHT31;63013;51.104;-115.370;2023-02-18T06:30:35;19.53;32.61
74537;SHT31;63013;51.104;-115.370;2023-02-18T06:33:02;19.51;32.62
74537;SHT31;63013;51.104;-115.370;2023-02-18T06:35:29;19.49;32.62
74537;SHT31;63013;51.104;-115.370;2023-02-18T06:37:57;19.48;32.62
74537;SHT31;63013;51.104;-115.370;2023-02-18T06:40:24;19.47;32.63
74537;SHT31;63013;51.104;-115.370;2023-02-18T06:42:51;19.45;32.61
74537;SHT31;63013;51.104;-115.370;2023-02-18T06:45:18;19.44;32.58
74537;SHT31;63013;51.104;-115.370;2023-02-18T06:47:46;19.42;32.60
74537;SHT31;63013;51.104;-115.370;2023-02-18T06:50:14;19.41;32.59
74537;SHT31;63013;51.104;-115.370;2023-02-18T06:52:41;19.40;32.59
74537;SHT31;63013;51.104;-115.370;2023-02-18T06:55:08;19.38;32.58
74537;SHT31;63013;51.104;-115.370;2023-02-18T06:57:36;19.37;32.57
74537;SHT31;63013;51.104;-115.370;2023-02-18T07:00:04;19.35;32.59
74537;SHT31;63013;51.104;-115.370;2023-02-18T07:02:32;19.33;32.58
74537;SHT31;63013;51.104;-115.370;2023-02-18T07:04:59;19.32;32.59
74537;SHT31;63013;51.104;-115.370;2023-02-18T07:07:26;19.29;32.59
74537;SHT31;63013;51.104;-115.370;2023-02-18T07:09:53;19.27;32.57
74537;SHT31;63013;51.104;-115.370;2023-02-18T07:12:20;19.26;32.59
74537;SHT31;63013;51.104;-115.370;2023-02-18T07:14:47;19.23;32.60
74537;SHT31;63013;51.104;-115.370;2023-02-18T07:17:14;19.22;32.60
74537;SHT31;63013;51.104;-115.370;2023-02-18T07:19:41;19.20;32.60
74537;SHT31;63013;51.104;-115.370;2023-02-18T07:22:11;19.18;32.58
74537;SHT31;63013;51.104;-115.370;2023-02-18T07:24:38;19.18;32.60
74537;SHT31;63013;51.104;-115.370;2023-02-18T07:27:06;19.15;32.55
74537;SHT31;63013;51.104;-115.370;2023-02-18T07:29:36;19.13;32.56
74537;SHT31;63013;51.104;-115.370;2023-02-18T07:32:03;19.11;32.60
74537;SHT31;63013;51.104;-115.370;2023-02-18T07:34:30;19.10;32.54
74537;SHT31;63013;51.104;-115.370;2023-02-18T07:36:58;19.09;32.56
74537;SHT31;63013;51.104;-115.370;2023-02-18T07:39:25;19.08;32.58
74537;SHT31;63013;51.104;-115.370;2023-02-18T07:41:52;19.05;32.58
74537;SHT31;63013;51.104;-115.370;2023-02-18T07:44:19;19.03;32.59
74537;SHT31;63013;51.104;-115.370;2023-02-18T07:46:46;19.02;32.60
74537;SHT31;63013;51.104;-115.370;2023-02-18T07:49:17;19.01;32.59
74537;SHT31;63013;51.104;-115.370;2023-02-18T07:51:48;19.00;32.59
74537;SHT31;63013;51.104;-115.370;2023-02-18T07:54:16;18.98;32.60
74537;SHT31;63013;51.104;-115.370;2023-02-18T07:56:43;18.96;32.59
74537;SHT31;63013;51.104;-115.370;2023-02-18T07:59:11;18.95;32.58
74537;SHT31;63013;51.104;-115.370;2023-02-18T08:01:39;18.93;32.60
74537;SHT31;63013;51.104;-115.370;2023-02-18T08:04:06;18.92;32.58
74537;SHT31;63013;51.104;-115.370;2023-02-18T08:06:35;18.89;32.57
74537;SHT31;63013;51.104;-115.370;2023-02-18T08:09:05;18.89;32.57
74537;SHT31;63013;51.104;-115.370;2023-02-18T08:11:33;18.87;32.58
74537;SHT31;63013;51.104;-115.370;2023-02-18T08:14:04;18.84;32.57
74537;SHT31;63013;51.104;-115.370;2023-02-18T08:16:32;18.82;32.57
74537;SHT31;63013;51.104;-115.370;2023-02-18T08:19:00;18.81;32.60
74537;SHT31;63013;51.104;-115.370;2023-02-18T08:21:30;18.79;32.58
74537;SHT31;63013;51.104;-115.370;2023-02-18T08:23:58;18.78;32.54
74537;SHT31;63013;51.104;-115.370;2023-02-18T08:26:25;18.76;32.55
74537;SHT31;63013;51.104;-115.370;2023-02-18T08:28:52;18.74;32.58
74537;SHT31;63013;51.104;-115.370;2023-02-18T08:31:24;18.72;32.51
74537;SHT31;63013;51.104;-115.370;2023-02-18T08:33:54;18.70;32.59
74537;SHT31;63013;51.104;-115.370;2023-02-18T08:36:23;18.68;32.59
74537;SHT31;63013;51.104;-115.370;2023-02-18T08:38:52;18.66;32.59
74537;SHT31;63013;51.104;-115.370;2023-02-18T08:41:19;18.65;32.60
74537;SHT31;63013;51.104;-115.370;2023-02-18T08:43:47;18.63;32.60
74537;SHT31;63013;51.104;-115.370;2023-02-18T08:46:14;18.62;32.59
74537;SHT31;63013;51.104;-115.370;2023-02-18T08:48:43;18.59;32.59
74537;SHT31;63013;51.104;-115.370;2023-02-18T08:51:16;18.58;32.61
74537;SHT31;63013;51.104;-115.370;2023-02-18T08:53:47;18.56;32.60
74537;SHT31;63013;51.104;-115.370;2023-02-18T08:56:15;18.55;32.62
74537;SHT31;63013;51.104;-115.370;2023-02-18T08:58:42;18.53;32.60
74537;SHT31;63013;51.104;-115.370;2023-02-18T09:01:10;18.52;32.61
74537;SHT31;63013;51.104;-115.370;2023-02-18T09:03:38;18.50;32.59
74537;SHT31;63013;51.104;-115.370;2023-02-18T09:06:06;18.49;32.60
74537;SHT31;63013;51.104;-115.370;2023-02-18T09:08:33;18.47;32.62
74537;SHT31;63013;51.104;-115.370;2023-02-18T09:11:01;18.46;32.66
74537;SHT31;63013;51.104;-115.370;2023-02-18T09:13:30;18.43;32.61
74537;SHT31;63013;51.104;-115.370;2023-02-18T09:16:02;18.42;32.67
74537;SHT31;63013;51.104;-115.370;2023-02-18T09:18:37;18.41;32.64
74537;SHT31;63013;51.104;-115.370;2023-02-18T09:21:06;18.38;32.67
74537;SHT31;63013;51.104;-115.370;2023-02-18T09:23:34;18.37;32.69
74537;SHT31;63013;51.104;-115.370;2023-02-18T09:26:05;18.35;32.69
74537;SHT31;63013;51.104;-115.370;2023-02-18T09:28:35;18.33;32.70
74537;SHT31;63013;51.104;-115.370;2023-02-18T09:31:06;18.32;32.70
74537;SHT31;63013;51.104;-115.370;2023-02-18T09:33:41;18.31;32.69
74537;SHT31;63013;51.104;-115.370;2023-02-18T09:36:13;18.30;32.70
74537;SHT31;63013;51.104;-115.370;2023-02-18T09:38:41;18.30;32.70
74537;SHT31;63013;51.104;-115.370;2023-02-18T09:41:54;18.29;32.69
74537;SHT31;63013;51.104;-115.370;2023-02-18T09:44:42;18.26;32.69
74537;SHT31;63013;51.104;-115.370;2023-02-18T09:47:17;18.26;32.68
74537;SHT31;63013;51.104;-115.370;2023-02-18T09:50:34;18.24;32.68
74537;SHT31;63013;51.104;-115.370;2023-02-18T09:52:59;18.23;32.76
74537;SHT31;63013;51.104;-115.370;2023-02-18T09:55:30;18.21;32.70
74537;SHT31;63013;51.104;-115.370;2023-02-18T09:58:07;18.19;32.70
74537;SHT31;63013;51.104;-115.370;2023-02-18T10:01:26;18.18;32.70
74537;SHT31;63013;51.104;-115.370;2023-02-18T10:03:37;18.16;32.70
74537;SHT31;63013;51.104;-115.370;2023-02-18T10:06:06;18.15;32.70
74537;SHT31;63013;51.104;-115.370;2023-02-18T10:08:46;18.14;32.71
74537;SHT31;63013;51.104;-115.370;2023-02-18T10:11:27;18.12;32.72
74537;SHT31;63013;51.104;-115.370;2023-02-18T10:14:00;18.10;32.68
74537;SHT31;63013;51.104;-115.370;2023-02-18T10:16:30;18.09;32.70
74537;SHT31;63013;51.104;-115.370;2023-02-18T10:19:03;18.08;32.71
74537;SHT31;63013;51.104;-115.370;2023-02-18T10:21:56;18.07;32.69
74537;SHT31;63013;51.104;-115.370;2023-02-18T10:27:06;18.04;32.67
74537;SHT31;63013;51.104;-115.370;2023-02-18T10:29:35;18.02;32.70
74537;SHT31;63013;51.104;-115.370;2023-02-18T10:35:06;18.00;32.71
74537;SHT31;63013;51.104;-115.370;2023-02-18T10:37:53;17.98;32.71
74537;SHT31;63013;51.104;-115.370;2023-02-18T10:43:53;17.95;32.72
74537;SHT31;63013;51.104;-115.370;2023-02-18T10:52:24;17.90;32.75
74537;SHT31;63013;51.104;-115.370;2023-02-18T10:57:30;17.86;32.77
74537;SHT31;63013;51.104;-115.370;2023-02-18T11:00:40;17.85;32.76
74537;SHT31;63013;51.104;-115.370;2023-02-18T11:03:01;17.83;32.77
74537;SHT31;63013;51.104;-115.370;2023-02-18T11:05:52;17.81;32.83
74537;SHT31;63013;51.104;-115.370;2023-02-18T11:08:26;17.81;32.78
74537;SHT31;63013;51.104;-115.370;2023-02-18T11:11:16;17.79;32.81
74537;SHT31;63013;51.104;-115.370;2023-02-18T11:13:58;17.78;32.77
74537;SHT31;63013;51.104;-115.370;2023-02-18T11:16:39;17.76;32.75
74537;SHT31;63013;51.104;-115.370;2023-02-18T11:22:34;17.74;32.75
74537;SHT31;63013;51.104;-115.370;2023-02-18T11:25:00;17.72;32.76
74537;SHT31;63013;51.104;-115.370;2023-02-18T11:27:31;17.72;32.76
74537;SHT31;63013;51.104;-115.370;2023-02-18T11:32:47;17.69;32.77
74537;SHT31;63013;51.104;-115.370;2023-02-18T11:35:19;17.67;32.82
74537;SHT31;63013;51.104;-115.370;2023-02-18T11:37:55;17.67;32.80
74537;SHT31;63013;51.104;-115.370;2023-02-18T11:40:31;17.66;32.84
74537;SHT31;63013;51.104;-115.370;2023-02-18T11:43:04;17.63;32.80
74537;SHT31;63013;51.104;-115.370;2023-02-18T11:45:41;17.62;32.78
74537;SHT31;63013;51.104;-115.370;2023-02-18T11:48:18;17.62;32.82
74537;SHT31;63013;51.104;-115.370;2023-02-18T11:50:49;17.60;32.79
74537;SHT31;63013;51.104;-115.370;2023-02-18T11:53:29;17.59;32.85
74537;SHT31;63013;51.104;-115.370;2023-02-18T11:56:03;17.58;32.80
74537;SHT31;63013;51.104;-115.370;2023-02-18T11:58:43;17.56;32.80
74537;SHT31;63013;51.104;-115.370;2023-02-18T12:04:12;17.52;32.88
74537;SHT31;63013;51.104;-115.370;2023-02-18T12:09:43;17.50;32.89
74537;SHT31;63013;51.104;-115.370;2023-02-18T12:12:31;17.48;32.79
74537;SHT31;63013;51.104;-115.370;2023-02-18T12:15:16;17.46;32.90
74537;SHT31;63013;51.104;-115.370;2023-02-18T12:18:01;17.45;32.86
74537;SHT31;63013;51.104;-115.370;2023-02-18T12:21:17;17.46;32.80
74537;SHT31;63013;51.104;-115.370;2023-02-18T12:24:28;17.43;32.83
74537;SHT31;63013;51.104;-115.370;2023-02-18T12:35:58;17.38;32.82
74537;SHT31;63013;51.104;-115.370;2023-02-18T12:39:01;17.36;32.81
74537;SHT31;63013;51.104;-115.370;2023-02-18T12:41:42;17.34;32.89
74537;SHT31;63013;51.104;-115.370;2023-02-18T12:44:40;17.33;32.91
74537;SHT31;63013;51.104;-115.370;2023-02-18T12:47:29;17.31;32.94
74537;SHT31;63013;51.104;-115.370;2023-02-18T12:50:21;17.30;32.91
74537;SHT31;63013;51.104;-115.370;2023-02-18T13:02:35;17.22;32.96
74537;SHT31;63013;51.104;-115.370;2023-02-18T13:08:11;17.18;32.94
74537;SHT31;63013;51.104;-115.370;2023-02-18T13:14:42;17.14;32.99
74537;SHT31;63013;51.104;-115.370;2023-02-18T13:16:53;17.13;32.96
74537;SHT31;63013;51.104;-115.370;2023-02-18T13:19:24;17.12;32.97
74537;SHT31;63013;51.104;-115.370;2023-02-18T13:21:57;17.11;33.04
74537;SHT31;63013;51.104;-115.370;2023-02-18T13:24:33;17.11;33.04
74537;SHT31;63013;51.104;-115.370;2023-02-18T13:27:15;17.08;33.08
74537;SHT31;63013;51.104;-115.370;2023-02-18T13:30:18;17.07;32.98
74537;SHT31;63013;51.104;-115.370;2023-02-18T13:33:14;17.06;32.99
74537;SHT31;63013;51.104;-115.370;2023-02-18T13:35:57;17.05;32.96
74537;SHT31;63013;51.104;-115.370;2023-02-18T13:41:48;17.03;32.99
74537;SHT31;63013;51.104;-115.370;2023-02-18T13:44:38;17.00;33.00
74537;SHT31;63013;51.104;-115.370;2023-02-18T13:47:40;17.00;32.99
74537;SHT31;63013;51.104;-115.370;2023-02-18T13:55:50;16.97;32.94
74537;SHT31;63013;51.104;-115.370;2023-02-18T13:58:28;16.96;33.02
74537;SHT31;63013;51.104;-115.370;2023-02-18T14:01:13;16.95;33.00
74537;SHT31;63013;51.104;-115.370;2023-02-18T14:04:32;16.94;33.06
74537;SHT31;63013;51.104;-115.370;2023-02-18T14:29:25;16.85;32.95
74537;SHT31;63013;51.104;-115.370;2023-02-18T14:31:56;16.87;32.92
74537;SHT31;63013;51.104;-115.370;2023-02-18T14:34:44;16.88;32.99
74537;SHT31;63013;51.104;-115.370;2023-02-18T14:37:43;16.91;32.96
74537;SHT31;63013;51.104;-115.370;2023-02-18T14:55:23;17.14;33.30
74537;SHT31;63013;51.104;-115.370;2023-02-18T15:00:53;17.22;33.80
74537;SHT31;63013;51.104;-115.370;2023-02-18T15:03:25;17.25;33.89
74537;SHT31;63013;51.104;-115.370;2023-02-18T15:05:53;17.29;33.99
74537;SHT31;63013;51.104;-115.370;2023-02-18T15:08:24;17.33;34.01
74537;SHT31;63013;51.104;-115.370;2023-02-18T15:10:55;17.37;34.04
74537;SHT31;63013;51.104;-115.370;2023-02-18T15:13:33;17.40;34.07
74537;SHT31;63013;51.104;-115.370;2023-02-18T15:16:08;17.45;34.10
74537;SHT31;63013;51.104;-115.370;2023-02-18T15:18:52;17.51;34.10
74537;SHT31;63013;51.104;-115.370;2023-02-18T15:21:32;17.57;34.10
74537;SHT31;63013;51.104;-115.370;2023-02-18T15:24:06;17.64;34.07
74537;SHT31;63013;51.104;-115.370;2023-02-18T15:26:58;17.71;34.10
74537;SHT31;63013;51.104;-115.370;2023-02-18T15:29:38;17.78;34.09
74537;SHT31;63013;51.104;-115.370;2023-02-18T15:32:16;17.88;34.04
74537;SHT31;63013;51.104;-115.370;2023-02-18T15:34:52;17.95;34.03
74537;SHT31;63013;51.104;-115.370;2023-02-18T15:37:26;18.03;34.00
74537;SHT31;63013;51.104;-115.370;2023-02-18T15:39:55;18.11;34.07
74537;SHT31;63013;51.104;-115.370;2023-02-18T15:42:32;18.18;34.06
74537;SHT31;63013;51.104;-115.370;2023-02-18T15:47:49;18.34;33.99
74537;SHT31;63013;51.104;-115.370;2023-02-18T15:50:23;18.42;33.90
74537;SHT31;63013;51.104;-115.370;2023-02-18T15:52:56;18.49;33.91
74537;SHT31;63013;51.104;-115.370;2023-02-18T15:55:37;18.57;33.90
74537;SHT31;63013;51.104;-115.370;2023-02-18T15:58:10;18.64;33.90
74537;SHT31;63013;51.104;-115.370;2023-02-18T16:00:57;18.72;33.90
74537;SHT31;63013;51.104;-115.370;2023-02-18T16:03:51;18.81;33.90
74537;SHT31;63013;51.104;-115.370;2023-02-18T16:09:11;18.99;33.85
74537;SHT31;63013;51.104;-115.370;2023-02-18T16:11:46;19.07;33.84
74537;SHT31;63013;51.104;-115.370;2023-02-18T16:14:23;19.15;33.87
74537;SHT31;63013;51.104;-115.370;2023-02-18T16:17:08;19.23;33.83
74537;SHT31;63013;51.104;-115.370;2023-02-18T16:19:46;19.31;33.80
74537;SHT31;63013;51.104;-115.370;2023-02-18T16:22:41;19.39;33.76
74537;SHT31;63013;51.104;-115.370;2023-02-18T16:30:36;19.59;33.76
74537;SHT31;63013;51.104;-115.370;2023-02-18T16:33:06;19.66;33.67
74537;SHT31;63013;51.104;-115.370;2023-02-18T16:35:33;19.72;33.60
74537;SHT31;63013;51.104;-115.370;2023-02-18T16:38:03;19.76;33.60
74537;SHT31;63013;51.104;-115.370;2023-02-18T16:40:37;19.79;33.60
74537;SHT31;63013;51.104;-115.370;2023-02-18T16:43:15;19.80;33.59
74537;SHT31;63013;51.104;-115.370;2023-02-18T16:45:55;19.80;33.59
74537;SHT31;63013;51.104;-115.370;2023-02-18T16:48:33;19.81;33.60
74537;SHT31;63013;51.104;-115.370;2023-02-18T16:51:06;19.82;33.61
74537;SHT31;63013;51.104;-115.370;2023-02-18T16:53:49;19.84;33.61
74537;SHT31;63013;51.104;-115.370;2023-02-18T16:56:18;19.87;33.60
74537;SHT31;63013;51.104;-115.370;2023-02-18T16:58:49;19.90;33.59
74537;SHT31;63013;51.104;-115.370;2023-02-18T17:01:29;19.93;33.59
74537;SHT31;63013;51.104;-115.370;2023-02-18T17:04:00;19.96;33.59
74537;SHT31;63013;51.104;-115.370;2023-02-18T17:06:29;19.99;33.53
74537;SHT31;63013;51.104;-115.370;2023-02-18T17:08:56;20.02;33.54
74537;SHT31;63013;51.104;-115.370;2023-02-18T17:11:28;20.03;33.57
74537;SHT31;63013;51.104;-115.370;2023-02-18T17:13:59;20.04;33.57
74537;SHT31;63013;51.104;-115.370;2023-02-18T17:16:29;20.04;33.54
74537;SHT31;63013;51.104;-115.370;2023-02-18T17:18:56;20.03;33.56
74537;SHT31;63013;51.104;-115.370;2023-02-18T17:21:24;20.03;33.59
74537;SHT31;63013;51.104;-115.370;2023-02-18T17:23:51;20.04;33.58
74537;SHT31;63013;51.104;-115.370;2023-02-18T17:28:53;20.05;33.52
74537;SHT31;63013;51.104;-115.370;2023-02-18T17:31:23;20.07;33.51
74537;SHT31;63013;51.104;-115.370;2023-02-18T17:33:59;20.10;33.50
74537;SHT31;63013;51.104;-115.370;2023-02-18T17:36:32;20.13;33.47
74537;SHT31;63013;51.104;-115.370;2023-02-18T17:38:59;20.15;33.43
74537;SHT31;63013;51.104;-115.370;2023-02-18T17:41:26;20.16;33.42
74537;SHT31;63013;51.104;-115.370;2023-02-18T17:43:53;20.16;33.40
74537;SHT31;63013;51.104;-115.370;2023-02-18T17:46:20;20.15;33.40
74537;SHT31;63013;51.104;-115.370;2023-02-18T17:48:47;20.15;33.40
74537;SHT31;63013;51.104;-115.370;2023-02-18T17:51:32;20.14;33.40
74537;SHT31;63013;51.104;-115.370;2023-02-18T17:54:13;20.14;33.39
74537;SHT31;63013;51.104;-115.370;2023-02-18T17:56:44;20.13;33.40
74537;SHT31;63013;51.104;-115.370;2023-02-18T17:59:12;20.14;33.39
74537;SHT31;63013;51.104;-115.370;2023-02-18T18:01:39;20.15;33.33
74537;SHT31;63013;51.104;-115.370;2023-02-18T18:04:14;20.17;33.31
74537;SHT31;63013;51.104;-115.370;2023-02-18T18:06:43;20.20;33.30
74537;SHT31;63013;51.104;-115.370;2023-02-18T18:09:14;20.21;33.32